Time;durP1;ratioP1;P1;durP2;ratioP2;P2;SDS_P1;SDS_P2;PMS_P1;PMS_P2;Temp;Humidity;BMP_temperature;BMP_pressure;BME280_temperature;BME280_humidity;BME280_pressure;Samples;Min_cycle;Max_cycle;Signal;HPM_P1;HPM_P2
2021/12/06 00:01:34;;;;;;;12.98;1.85;;;6.80;99.90;;;;;;4988282;28;20105;-76
2021/12/06 00:04:08;;;;;;;9.00;1.50;;;6.80;99.90;;;;;;4973064;28;20046;-77
2021/12/06 00:06:38;;;;;;;9.57;1.52;;;6.80;99.90;;;;;;4977877;28;20050;-77
2021/12/06 00:09:08;;;;;;;8.63;1.58;;;7.00;99.90;;;;;;4992017;28;20577;-76
2021/12/06 00:11:35;;;;;;;8.38;1.60;;;7.00;99.90;;;;;;4983884;28;20046;-76
2021/12/06 00:14:04;;;;;;;10.85;1.52;;;7.00;99.90;;;;;;4982922;28;20077;-76
2021/12/06 00:16:31;;;;;;;10.77;1.83;;;6.90;99.90;;;;;;4985160;28;20411;-78
2021/12/06 00:18:58;;;;;;;10.45;1.95;;;6.90;99.90;;;;;;4979083;28;20657;-76
2021/12/06 00:21:27;;;;;;;12.70;1.85;;;6.80;99.90;;;;;;4988914;28;20788;-77
2021/12/06 00:23:54;;;;;;;14.68;2.10;;;6.80;99.90;;;;;;4984948;28;20051;-77
2021/12/06 00:26:21;;;;;;;8.23;1.83;;;6.70;99.90;;;;;;4977695;28;20051;-76
2021/12/06 00:28:56;;;;;;;9.48;1.67;;;6.70;99.90;;;;;;4976653;28;20105;-77
2021/12/06 00:31:24;;;;;;;8.02;2.08;;;6.70;99.90;;;;;;4977142;28;20109;-77
2021/12/06 00:33:58;;;;;;;8.52;1.92;;;6.70;99.90;;;;;;4977352;28;20135;-75
2021/12/06 00:36:28;;;;;;;10.27;1.85;;;6.70;99.90;;;;;;5000298;28;20113;-77
2021/12/06 00:38:56;;;;;;;10.70;1.92;;;6.70;99.90;;;;;;4989553;28;20062;-76
2021/12/06 00:41:23;;;;;;;5.65;1.73;;;6.70;99.90;;;;;;4980996;28;20504;-77
2021/12/06 00:43:51;;;;;;;7.30;1.58;;;6.70;99.90;;;;;;4987913;28;20131;-76
2021/12/06 00:46:18;;;;;;;4.97;2.00;;;6.80;99.90;;;;;;4979832;28;20062;-76
2021/12/06 00:48:45;;;;;;;8.75;1.83;;;6.80;99.90;;;;;;4975331;28;20486;-77
2021/12/06 00:51:15;;;;;;;7.68;1.25;;;6.90;99.90;;;;;;4986051;28;20108;-76
2021/12/06 00:53:43;;;;;;;10.80;1.92;;;7.00;99.90;;;;;;4995273;28;20105;-76
2021/12/06 00:56:11;;;;;;;11.57;1.70;;;7.00;99.90;;;;;;4994957;28;20510;-76
2021/12/06 00:58:38;;;;;;;7.75;1.75;;;7.10;99.90;;;;;;4996326;28;20054;-76
2021/12/06 01:01:07;;;;;;;10.07;1.63;;;7.10;99.90;;;;;;4994202;28;20053;-77
2021/12/06 01:03:37;;;;;;;9.65;1.90;;;7.10;99.90;;;;;;4994448;28;20046;-78
2021/12/06 01:06:05;;;;;;;8.57;1.85;;;7.10;99.90;;;;;;4993035;28;20105;-77
2021/12/06 01:08:32;;;;;;;12.32;1.70;;;7.10;99.90;;;;;;4994765;28;20100;-77
2021/12/06 01:11:00;;;;;;;8.50;1.50;;;7.20;99.90;;;;;;4995234;28;20109;-79
2021/12/06 01:13:27;;;;;;;10.05;1.85;;;7.10;99.90;;;;;;4993746;28;20051;-77
2021/12/06 01:15:55;;;;;;;10.75;1.40;;;7.10;99.90;;;;;;4994568;28;20722;-75
2021/12/06 01:18:24;;;;;;;9.50;1.45;;;7.10;99.90;;;;;;4993698;28;20050;-78
2021/12/06 01:23:51;;;;;;;6.47;1.52;;;7.20;99.90;;;;;;4995875;28;20054;-76
2021/12/06 01:26:38;;;;;;;10.35;1.33;;;7.20;99.90;;;;;;4995095;28;20053;-77
2021/12/06 01:32:05;;;;;;;11.52;1.55;;;7.20;99.90;;;;;;4956033;28;20102;-77
2021/12/06 01:40:04;;;;;;;5.53;1.60;;;7.40;99.90;;;;;;4978068;28;20043;-77
2021/12/06 01:42:31;;;;;;;7.38;2.60;;;7.40;99.90;;;;;;4991146;28;20047;-76
2021/12/06 01:44:59;;;;;;;10.23;2.15;;;7.30;99.90;;;;;;4998132;28;20136;-77
2021/12/06 01:47:32;;;;;;;7.40;1.52;;;7.30;99.90;;;;;;4993047;28;20514;-77
2021/12/06 01:50:13;;;;;;;12.43;1.92;;;7.30;99.90;;;;;;4994913;28;20104;-77
2021/12/06 01:52:44;;;;;;;6.53;2.08;;;7.30;99.90;;;;;;4994862;28;20503;-77
2021/12/06 01:55:16;;;;;;;8.95;1.67;;;7.30;99.90;;;;;;4993958;28;20502;-77
2021/12/06 01:57:43;;;;;;;9.27;1.58;;;7.30;99.90;;;;;;4989809;28;20042;-77
2021/12/06 02:00:25;;;;;;;7.60;1.45;;;7.30;99.90;;;;;;4999808;28;20109;-76
2021/12/06 02:02:52;;;;;;;5.75;1.27;;;7.30;99.90;;;;;;4994668;28;20047;-77
2021/12/06 02:05:19;;;;;;;6.93;1.58;;;7.30;99.90;;;;;;4992456;28;20093;-77
2021/12/06 02:07:47;;;;;;;9.05;1.50;;;7.30;99.90;;;;;;4994569;28;20061;-78
2021/12/06 02:10:14;;;;;;;13.55;1.70;;;7.30;99.90;;;;;;4994686;28;20042;-77
2021/12/06 02:12:43;;;;;;;12.13;1.58;;;7.30;99.90;;;;;;4980742;28;20054;-77
2021/12/06 02:15:34;;;;;;;7.85;1.58;;;7.20;99.90;;;;;;4993786;28;20058;-75
2021/12/06 02:18:06;;;;;;;7.68;1.70;;;7.20;99.90;;;;;;4985818;28;20102;-77
2021/12/06 02:20:41;;;;;;;5.30;1.35;;;7.10;99.90;;;;;;4997413;28;20074;-76
2021/12/06 02:23:08;;;;;;;7.68;1.60;;;7.10;99.90;;;;;;4999056;28;20050;-78
2021/12/06 02:25:35;;;;;;;7.53;1.50;;;7.10;99.90;;;;;;4998662;28;20078;-77
2021/12/06 02:28:02;;;;;;;8.55;1.48;;;7.00;99.90;;;;;;4993541;28;20438;-77
2021/12/06 02:30:29;;;;;;;4.80;1.38;;;7.00;99.90;;;;;;4987816;28;20050;-76
2021/12/06 02:32:58;;;;;;;9.85;1.88;;;7.00;99.90;;;;;;4993063;28;20053;-77
2021/12/06 02:35:26;;;;;;;5.97;1.88;;;6.90;99.90;;;;;;4993891;28;20465;-76
2021/12/06 02:37:54;;;;;;;5.82;1.75;;;6.90;99.90;;;;;;4996184;28;20043;-74
2021/12/06 02:40:24;;;;;;;6.88;1.17;;;6.90;99.90;;;;;;4994587;28;20117;-77
2021/12/06 02:42:52;;;;;;;5.57;1.60;;;6.90;99.90;;;;;;4990271;28;20050;-77
2021/12/06 02:45:21;;;;;;;4.45;1.65;;;6.90;99.90;;;;;;4992737;28;20051;-78
2021/12/06 02:47:53;;;;;;;5.57;1.48;;;6.90;99.90;;;;;;4993094;28;20450;-77
2021/12/06 02:50:25;;;;;;;11.52;1.88;;;6.90;99.90;;;;;;4992934;28;20053;-76
2021/12/06 02:52:54;;;;;;;3.15;1.42;;;6.80;99.90;;;;;;4988286;28;20097;-77
2021/12/06 02:55:43;;;;;;;6.47;1.95;;;6.80;99.90;;;;;;4989672;28;20719;-76
2021/12/06 02:58:18;;;;;;;9.00;1.65;;;6.80;99.90;;;;;;4980028;28;20047;-77
2021/12/06 03:00:53;;;;;;;7.75;1.55;;;6.80;99.90;;;;;;4991503;28;20042;-75
2021/12/06 03:03:22;;;;;;;7.95;1.55;;;6.70;99.90;;;;;;4984452;28;20503;-77
2021/12/06 03:05:50;;;;;;;6.57;1.45;;;6.70;99.90;;;;;;4990128;28;20065;-77
2021/12/06 03:08:36;;;;;;;6.03;2.13;;;6.70;99.90;;;;;;4974049;28;20109;-78
2021/12/06 03:11:06;;;;;;;9.40;1.90;;;6.60;99.90;;;;;;4980574;28;20070;-74
2021/12/06 03:13:33;;;;;;;6.97;1.80;;;6.60;99.90;;;;;;5000846;28;20498;-78
2021/12/06 03:16:01;;;;;;;6.95;1.80;;;6.60;99.90;;;;;;4993463;28;20082;-76
2021/12/06 03:18:28;;;;;;;9.65;2.20;;;6.60;99.90;;;;;;4992500;28;20117;-77
2021/12/06 03:20:55;;;;;;;7.15;2.05;;;6.60;99.90;;;;;;4990645;28;20050;-76
2021/12/06 03:23:22;;;;;;;6.43;1.50;;;6.60;99.90;;;;;;4975081;28;20050;-77
2021/12/06 03:25:48;;;;;;;7.10;1.60;;;6.60;99.90;;;;;;4974083;28;20050;-78
2021/12/06 03:28:15;;;;;;;5.55;1.60;;;6.60;99.90;;;;;;4985786;28;20058;-75
2021/12/06 03:30:42;;;;;;;4.90;1.83;;;6.60;99.90;;;;;;4991120;28;20109;-77
2021/12/06 03:33:09;;;;;;;8.95;2.08;;;6.60;99.90;;;;;;4991969;28;20048;-76
2021/12/06 03:35:37;;;;;;;7.28;2.28;;;6.60;99.90;;;;;;4990278;28;20580;-77
2021/12/06 03:38:04;;;;;;;7.57;1.77;;;6.50;99.90;;;;;;4991725;28;20086;-75
2021/12/06 03:40:31;;;;;;;7.50;1.45;;;6.50;99.90;;;;;;4992195;28;20047;-78
2021/12/06 03:42:58;;;;;;;4.07;1.63;;;6.40;99.90;;;;;;4990169;28;20050;-76
2021/12/06 03:45:25;;;;;;;5.07;1.50;;;6.40;99.90;;;;;;4991696;28;20101;-77
2021/12/06 03:47:53;;;;;;;5.32;1.55;;;6.30;99.90;;;;;;4991040;28;20058;-76
2021/12/06 03:50:20;;;;;;;3.10;1.30;;;6.30;99.90;;;;;;4989848;28;20105;-78
2021/12/06 03:52:47;;;;;;;10.23;1.55;;;6.30;99.90;;;;;;4992593;28;20478;-75
2021/12/06 03:55:14;;;;;;;5.00;1.55;;;6.30;99.90;;;;;;4990697;28;20046;-77
2021/12/06 03:57:41;;;;;;;8.07;1.35;;;6.30;99.90;;;;;;4992298;28;20050;-76
2021/12/06 04:00:09;;;;;;;4.43;1.40;;;6.40;99.90;;;;;;4990675;28;20042;-78
2021/12/06 04:02:36;;;;;;;4.07;1.33;;;6.40;99.90;;;;;;4988440;28;20770;-78
2021/12/06 04:05:04;;;;;;;5.78;1.40;;;6.30;99.90;;;;;;4988159;28;20047;-77
2021/12/06 04:07:31;;;;;;;11.68;1.10;;;6.30;99.90;;;;;;5001489;28;20046;-78
2021/12/06 04:09:58;;;;;;;4.13;1.42;;;6.20;99.90;;;;;;4988718;28;20396;-78
2021/12/06 04:12:25;;;;;;;7.15;1.33;;;6.20;99.90;;;;;;4988143;28;20051;-78
2021/12/06 04:14:52;;;;;;;7.53;1.35;;;6.10;99.90;;;;;;4990763;28;20123;-76
2021/12/06 04:17:20;;;;;;;5.07;1.23;;;6.00;99.90;;;;;;5007901;28;20050;-77
2021/12/06 04:19:47;;;;;;;6.00;1.40;;;5.90;99.90;;;;;;4993675;28;20046;-75
2021/12/06 04:22:15;;;;;;;3.53;1.10;;;5.80;99.90;;;;;;4988188;28;20665;-77
2021/12/06 04:24:44;;;;;;;6.07;1.50;;;5.70;99.90;;;;;;4988409;28;20054;-78
2021/12/06 04:27:15;;;;;;;5.35;1.48;;;5.60;99.90;;;;;;4996642;28;20061;-75
2021/12/06 04:29:44;;;;;;;10.15;1.50;;;5.50;99.90;;;;;;4973652;28;20051;-77
2021/12/06 04:32:12;;;;;;;4.00;1.30;;;5.40;99.90;;;;;;4994761;28;20058;-77
2021/12/06 04:34:39;;;;;;;7.18;1.40;;;5.30;99.90;;;;;;4988190;28;20106;-77
2021/12/06 04:37:07;;;;;;;6.70;1.20;;;5.30;99.90;;;;;;4988138;28;20050;-77
2021/12/06 04:39:34;;;;;;;6.90;1.67;;;5.30;99.90;;;;;;4988837;28;20515;-78
2021/12/06 04:42:02;;;;;;;2.70;1.27;;;5.30;99.90;;;;;;4991942;28;20054;-74
2021/12/06 04:44:29;;;;;;;5.15;1.33;;;5.30;99.90;;;;;;4989820;28;20047;-77
2021/12/06 04:46:57;;;;;;;3.17;1.25;;;5.30;99.90;;;;;;4987864;28;20054;-78
2021/12/06 04:49:26;;;;;;;3.45;1.35;;;5.20;99.90;;;;;;4990656;28;20050;-75
2021/12/06 04:51:56;;;;;;;3.80;1.30;;;5.20;99.90;;;;;;4992174;28;20062;-76
2021/12/06 04:54:30;;;;;;;8.68;1.70;;;5.20;99.90;;;;;;4987450;28;20514;-74
2021/12/06 04:57:29;;;;;;;5.40;1.10;;;5.10;99.90;;;;;;4991070;28;20396;-76
2021/12/06 05:00:06;;;;;;;5.43;1.48;;;5.10;99.90;;;;;;4979005;28;20108;-79
2021/12/06 05:02:34;;;;;;;;;;;5.00;99.90;;;;;;4991765;28;20105;-77
2021/12/06 05:05:23;;;;;;;7.53;1.60;;;5.00;99.90;;;;;;4989952;28;20420;-76
2021/12/06 05:07:55;;;;;;;2.63;1.35;;;5.00;99.90;;;;;;4992260;28;20043;-76
2021/12/06 05:10:22;;;;;;;3.42;1.50;;;4.90;99.90;;;;;;4996041;28;20046;-77
2021/12/06 05:12:50;;;;;;;5.15;1.52;;;4.90;99.90;;;;;;4991691;28;20510;-76
2021/12/06 05:15:17;;;;;;;6.72;1.60;;;4.90;99.90;;;;;;4989834;28;20043;-76
2021/12/06 05:17:44;;;;;;;3.65;1.33;;;5.00;99.90;;;;;;4991690;28;20046;-76
2021/12/06 05:20:14;;;;;;;8.63;2.38;;;5.00;99.90;;;;;;4989614;28;20082;-77
2021/12/06 05:22:41;;;;;;;5.05;1.30;;;5.00;99.90;;;;;;4984231;28;20097;-76
2021/12/06 05:25:09;;;;;;;6.00;1.42;;;5.10;99.90;;;;;;4991500;28;20050;-78
2021/12/06 05:27:37;;;;;;;3.05;1.20;;;5.10;99.90;;;;;;4991399;28;20105;-77
2021/12/06 05:30:08;;;;;;;4.95;1.52;;;5.10;99.90;;;;;;5000217;28;20115;-77
2021/12/06 05:32:36;;;;;;;5.32;1.42;;;5.20;99.90;;;;;;4991439;28;20051;-75
2021/12/06 05:35:07;;;;;;;5.28;1.55;;;5.20;99.90;;;;;;4991607;28;20104;-76
2021/12/06 05:37:40;;;;;;;6.05;1.80;;;5.30;99.90;;;;;;5007883;28;20419;-77
2021/12/06 05:40:11;;;;;;;8.52;1.50;;;5.30;99.90;;;;;;4994315;28;20124;-76
2021/12/06 05:42:38;;;;;;;5.45;1.73;;;5.30;99.90;;;;;;4992515;28;20050;-75
2021/12/06 05:45:07;;;;;;;4.32;1.27;;;5.40;99.90;;;;;;4993630;28;20471;-75
2021/12/06 05:47:33;;;;;;;8.18;1.50;;;5.40;99.90;;;;;;4994210;28;20628;-78
2021/12/06 05:50:01;;;;;;;10.80;2.03;;;5.40;99.90;;;;;;4988524;28;20043;-77
2021/12/06 05:52:28;;;;;;;5.78;1.65;;;5.40;99.90;;;;;;4983437;28;20054;-75
2021/12/06 05:54:55;;;;;;;4.65;1.67;;;5.40;99.90;;;;;;4983428;28;20046;-76
2021/12/06 05:57:22;;;;;;;13.27;1.63;;;5.40;99.90;;;;;;4998539;28;20469;-77
2021/12/06 05:59:49;;;;;;;10.23;1.95;;;5.40;99.90;;;;;;4997708;28;20108;-75
2021/12/06 06:02:17;;;;;;;10.48;2.03;;;5.50;99.90;;;;;;4984821;28;20454;-76
2021/12/06 06:04:44;;;;;;;6.82;2.03;;;5.60;99.90;;;;;;4984366;28;20055;-75
2021/12/06 06:07:11;;;;;;;19.83;2.60;;;5.70;99.90;;;;;;4990742;28;20071;-83
2021/12/06 06:09:38;;;;;;;11.20;2.17;;;5.80;99.90;;;;;;4985485;28;20511;-77
2021/12/06 06:12:06;;;;;;;15.80;2.53;;;5.90;99.90;;;;;;4983681;28;20105;-77
2021/12/06 06:14:33;;;;;;;8.05;2.45;;;6.00;99.90;;;;;;4987940;28;20164;-77
2021/12/06 06:17:08;;;;;;;11.40;2.50;;;6.10;99.90;;;;;;4986964;28;20105;-76
2021/12/06 06:19:38;;;;;;;10.65;3.75;;;6.10;99.90;;;;;;4982483;28;20043;-78
2021/12/06 06:22:06;;;;;;;15.93;4.10;;;6.10;99.90;;;;;;4980393;28;20522;-76
2021/12/06 06:24:33;;;;;;;16.92;4.15;;;6.20;99.90;;;;;;4985822;28;20108;-76
2021/12/06 06:27:00;;;;;;;10.32;3.22;;;6.30;99.90;;;;;;4991925;28;20461;-75
2021/12/06 06:29:27;;;;;;;17.20;3.75;;;6.30;99.90;;;;;;4987548;28;20124;-76
2021/12/06 06:31:54;;;;;;;8.20;2.80;;;6.30;99.90;;;;;;4985896;28;20081;-76
2021/12/06 06:34:21;;;;;;;8.20;2.17;;;6.40;99.90;;;;;;4980596;28;20514;-77
2021/12/06 06:36:48;;;;;;;16.13;2.42;;;6.40;99.90;;;;;;4983500;28;20050;-77
2021/12/06 06:39:19;;;;;;;11.55;2.70;;;6.40;99.90;;;;;;4981866;28;20162;-77
2021/12/06 06:41:51;;;;;;;11.95;2.92;;;6.50;99.90;;;;;;4981902;28;20050;-78
2021/12/06 06:44:20;;;;;;;19.52;2.42;;;6.50;99.90;;;;;;4987268;28;20529;-78
2021/12/06 06:46:48;;;;;;;9.55;1.98;;;6.50;99.90;;;;;;4984499;28;20584;-78
2021/12/06 06:49:17;;;;;;;12.60;1.90;;;6.60;99.90;;;;;;4988154;28;20051;-77
2021/12/06 06:51:46;;;;;;;16.48;1.98;;;6.60;99.90;;;;;;4989328;28;20050;-77
2021/12/06 06:54:14;;;;;;;8.38;1.80;;;6.70;99.90;;;;;;4980667;28;20399;-77
2021/12/06 06:56:41;;;;;;;13.02;1.70;;;6.70;99.90;;;;;;4980185;28;20047;-77
2021/12/06 06:59:08;;;;;;;24.58;2.58;;;6.80;99.90;;;;;;4985965;28;20042;-77
2021/12/06 07:01:35;;;;;;;19.10;1.98;;;7.00;99.90;;;;;;4991634;28;20430;-78
2021/12/06 07:04:08;;;;;;;14.30;2.00;;;7.10;99.90;;;;;;4987427;28;20101;-77
2021/12/06 07:06:35;;;;;;;24.50;2.75;;;7.20;99.90;;;;;;4984643;28;20054;-77
2021/12/06 07:09:03;;;;;;;41.45;16.85;;;7.30;99.90;;;;;;4987294;28;20050;-76
2021/12/06 07:11:30;;;;;;;62.67;26.40;;;7.30;99.90;;;;;;4974756;28;20817;-76
2021/12/06 07:13:57;;;;;;;57.65;22.20;;;7.30;99.90;;;;;;4988749;28;20054;-78
2021/12/06 07:16:26;;;;;;;16.65;3.30;;;7.30;99.90;;;;;;4989409;28;20426;-77
2021/12/06 07:18:53;;;;;;;28.17;5.88;;;7.30;99.90;;;;;;4991359;28;20058;-78
2021/12/06 07:21:21;;;;;;;17.33;3.20;;;7.30;99.90;;;;;;4997957;28;20066;-78
2021/12/06 07:23:48;;;;;;;16.20;2.78;;;7.30;99.90;;;;;;4992982;28;20055;-76
2021/12/06 07:26:18;;;;;;;31.08;9.88;;;7.30;99.90;;;;;;4992685;28;20074;-77
2021/12/06 07:28:47;;;;;;;36.92;14.73;;;7.30;99.90;;;;;;4990986;28;20046;-78
2021/12/06 07:31:15;;;;;;;28.92;9.05;;;7.20;99.90;;;;;;4989209;28;20126;-77
2021/12/06 07:33:44;;;;;;;29.48;13.52;;;7.20;99.90;;;;;;4989180;28;20046;-76
2021/12/06 07:36:20;;;;;;;35.28;10.77;;;7.10;99.90;;;;;;5001196;28;20137;-79
2021/12/06 07:38:48;;;;;;;17.60;5.68;;;7.10;99.90;;;;;;4996618;28;20100;-78
2021/12/06 07:41:16;;;;;;;28.55;11.15;;;7.00;99.90;;;;;;4994543;28;20046;-78
2021/12/06 07:43:44;;;;;;;17.52;5.43;;;7.00;99.90;;;;;;4992824;28;20050;-80
2021/12/06 07:46:11;;;;;;;18.65;6.78;;;7.00;99.90;;;;;;4988239;28;20568;-77
2021/12/06 07:48:40;;;;;;;24.30;8.85;;;7.00;99.90;;;;;;4980525;28;20054;-78
2021/12/06 07:51:07;;;;;;;52.38;21.77;;;7.00;99.90;;;;;;4984312;28;20043;-79
2021/12/06 07:53:38;;;;;;;24.63;10.88;;;7.00;99.90;;;;;;5007342;28;20101;-78
2021/12/06 07:56:06;;;;;;;33.28;10.15;;;7.00;99.90;;;;;;5010109;28;20498;-78
2021/12/06 07:58:33;;;;;;;28.92;13.27;;;7.10;99.90;;;;;;4996523;28;20078;-80
2021/12/06 08:01:01;;;;;;;20.90;7.57;;;7.10;99.90;;;;;;4999373;28;20050;-80
2021/12/06 08:03:30;;;;;;;24.65;7.38;;;7.10;99.90;;;;;;4998107;28;20702;-78
2021/12/06 08:05:59;;;;;;;21.30;7.28;;;7.10;99.90;;;;;;4996434;28;20105;-80
2021/12/06 08:08:28;;;;;;;24.00;6.05;;;7.20;99.90;;;;;;4987812;28;20109;-81
2021/12/06 08:11:16;;;;;;;16.70;4.35;;;7.20;99.90;;;;;;4989501;28;20592;-79
2021/12/06 08:13:46;;;;;;;22.45;3.42;;;7.20;99.90;;;;;;4982809;28;20105;-79
2021/12/06 08:16:18;;;;;;;17.73;2.85;;;7.30;99.90;;;;;;4988461;28;20503;-78
2021/12/06 08:18:46;;;;;;;27.60;2.70;;;7.40;99.90;;;;;;4993652;28;20120;-79
2021/12/06 08:21:16;;;;;;;15.13;3.08;;;7.40;99.90;;;;;;4992172;28;20462;-78
2021/12/06 08:23:43;;;;;;;12.73;1.98;;;7.40;99.90;;;;;;4991646;28;20411;-80
2021/12/06 08:26:13;;;;;;;11.25;1.77;;;7.40;99.90;;;;;;4992035;28;20809;-76
2021/12/06 08:28:41;;;;;;;21.23;2.45;;;7.40;99.90;;;;;;4993926;28;20430;-76
2021/12/06 08:31:09;;;;;;;14.90;2.33;;;7.40;99.90;;;;;;4992761;28;20096;-78
2021/12/06 08:33:38;;;;;;;20.20;2.50;;;7.40;99.90;;;;;;4990532;28;20054;-78
2021/12/06 08:36:07;;;;;;;21.25;2.50;;;7.40;99.90;;;;;;4986659;28;20062;-78
2021/12/06 08:38:37;;;;;;;18.92;2.75;;;7.50;99.90;;;;;;4985499;28;20134;-78
2021/12/06 08:41:08;;;;;;;16.08;2.28;;;7.50;99.90;;;;;;4984476;28;20093;-76
2021/12/06 08:43:39;;;;;;;8.05;1.73;;;7.50;99.90;;;;;;4982469;28;20048;-79
2021/12/06 08:46:15;;;;;;;15.23;2.38;;;7.50;99.90;;;;;;4980024;28;20089;-79
2021/12/06 08:48:44;;;;;;;12.18;2.03;;;7.50;99.90;;;;;;4981243;28;20051;-78
2021/12/06 08:51:15;;;;;;;14.10;2.35;;;7.50;99.90;;;;;;4995593;28;20057;-78
2021/12/06 08:53:46;;;;;;;21.13;1.90;;;7.60;99.90;;;;;;4977462;28;20055;-78
2021/12/06 08:56:14;;;;;;;22.25;2.72;;;7.60;99.90;;;;;;4985442;28;20498;-78
2021/12/06 08:58:41;;;;;;;12.45;2.30;;;7.70;99.90;;;;;;4984915;28;20047;-78
2021/12/06 09:01:09;;;;;;;19.83;1.80;;;7.70;99.90;;;;;;4989183;28;20101;-79
2021/12/06 09:03:57;;;;;;;7.30;1.92;;;7.80;99.90;;;;;;4989354;28;20050;-79
2021/12/06 09:06:24;;;;;;;20.92;3.38;;;7.80;99.90;;;;;;4984911;28;20430;-80
2021/12/06 09:08:52;;;;;;;10.90;2.40;;;7.90;99.90;;;;;;4986925;28;20050;-79
2021/12/06 09:11:19;;;;;;;18.98;2.33;;;7.90;99.90;;;;;;4986404;28;20047;-80
2021/12/06 09:13:46;;;;;;;12.00;1.90;;;7.90;99.90;;;;;;4991605;28;20061;-78
2021/12/06 09:16:14;;;;;;;11.68;1.92;;;7.90;99.90;;;;;;4986422;28;20054;-79
2021/12/06 09:18:42;;;;;;;13.02;1.73;;;7.90;99.90;;;;;;4995187;28;20043;-78
2021/12/06 09:21:20;;;;;;;9.88;1.85;;;7.80;99.90;;;;;;4994293;28;20077;-79
2021/12/06 09:23:49;;;;;;;11.63;1.70;;;7.90;99.90;;;;;;4994795;28;20142;-78
2021/12/06 09:26:17;;;;;;;13.77;1.83;;;8.00;99.90;;;;;;4992000;28;20060;-77
2021/12/06 09:28:45;;;;;;;14.65;2.08;;;8.00;99.90;;;;;;5003071;28;20796;-79
2021/12/06 09:31:15;;;;;;;17.80;2.38;;;8.00;99.90;;;;;;4977799;28;20112;-77
2021/12/06 09:33:42;;;;;;;10.95;2.33;;;8.00;99.90;;;;;;4996503;28;20494;-79
2021/12/06 09:36:12;;;;;;;11.48;2.00;;;8.00;99.90;;;;;;4994393;28;20042;-79
2021/12/06 09:38:40;;;;;;;12.38;2.55;;;8.00;99.90;;;;;;4990028;28;20097;-80
2021/12/06 09:41:17;;;;;;;11.65;2.30;;;8.00;99.90;;;;;;5004748;28;20089;-79
2021/12/06 09:43:44;;;;;;;8.95;1.88;;;8.00;99.90;;;;;;4992492;28;20506;-79
2021/12/06 09:46:12;;;;;;;11.02;2.30;;;8.00;99.90;;;;;;4994019;28;20104;-80
2021/12/06 09:48:42;;;;;;;13.05;2.00;;;8.00;99.90;;;;;;4993774;28;20526;-79
2021/12/06 09:51:25;;;;;;;14.60;2.13;;;8.00;99.90;;;;;;4994652;28;20081;-80
2021/12/06 09:53:54;;;;;;;13.95;2.25;;;8.00;99.90;;;;;;4989825;28;20047;-80
2021/12/06 09:56:39;;;;;;;9.65;1.95;;;7.80;99.90;;;;;;5006724;28;20057;-79
2021/12/06 09:59:10;;;;;;;21.30;2.83;;;7.80;99.90;;;;;;4983124;28;20067;-79
2021/12/06 10:01:41;;;;;;;16.60;2.90;;;7.70;99.90;;;;;;4991457;28;20070;-79
2021/12/06 10:04:09;;;;;;;13.02;2.35;;;7.70;99.90;;;;;;5006341;28;20047;-79
2021/12/06 10:06:37;;;;;;;10.02;2.10;;;7.70;99.90;;;;;;5010829;28;20097;-85
2021/12/06 10:09:08;;;;;;;12.82;2.60;;;7.80;99.90;;;;;;5001497;28;20154;-83
2021/12/06 10:11:55;;;;;;;13.93;2.53;;;7.90;99.90;;;;;;4999092;28;20066;-79
2021/12/06 10:14:26;;;;;;;13.85;2.67;;;7.90;99.90;;;;;;4998447;28;20046;-82
2021/12/06 10:16:53;;;;;;;21.85;3.47;;;8.00;99.90;;;;;;5000477;28;20508;-84
2021/12/06 10:19:25;;;;;;;13.40;1.88;;;8.10;99.90;;;;;;4998323;28;20129;-79
2021/12/06 10:22:00;;;;;;;12.55;2.55;;;8.00;99.90;;;;;;5000243;28;20058;-83
2021/12/06 10:24:31;;;;;;;14.20;2.42;;;8.10;99.90;;;;;;5015943;28;20046;-83
2021/12/06 10:27:08;;;;;;;19.48;3.38;;;8.10;99.90;;;;;;5015084;28;20058;-80
2021/12/06 10:29:47;;;;;;;16.42;2.35;;;8.20;99.90;;;;;;5016931;28;20057;-84
2021/12/06 10:32:18;;;;;;;13.73;3.30;;;8.20;99.90;;;;;;5005368;28;20129;-84
2021/12/06 10:34:53;;;;;;;18.00;3.58;;;8.20;99.90;;;;;;4997053;28;20054;-83
2021/12/06 10:37:46;;;;;;;14.00;2.90;;;8.10;99.90;;;;;;5015518;28;20093;-92
2021/12/06 10:40:20;;;;;;;18.67;3.05;;;8.10;99.90;;;;;;4996927;28;20066;-84
2021/12/06 10:42:49;;;;;;;9.05;2.70;;;8.00;99.90;;;;;;5000055;28;20122;-87
2021/12/06 10:45:29;;;;;;;8.60;2.47;;;7.90;99.90;;;;;;4998702;28;20113;-88
2021/12/06 10:48:26;;;;;;;8.18;2.00;;;7.70;99.90;;;;;;4999168;28;20065;-82
2021/12/06 10:50:59;;;;;;;10.82;2.42;;;7.70;99.90;;;;;;4996683;28;20050;-84
2021/12/06 10:53:34;;;;;;;13.05;2.38;;;7.70;99.90;;;;;;4998002;28;20099;-84
2021/12/06 10:56:14;;;;;;;13.23;2.55;;;7.70;99.90;;;;;;4995007;28;20061;-81
2021/12/06 10:58:43;;;;;;;12.95;2.47;;;7.70;99.90;;;;;;4997164;28;20066;-81
2021/12/06 11:01:17;;;;;;;10.68;2.75;;;7.70;99.90;;;;;;4987359;28;20046;-86
2021/12/06 11:03:48;;;;;;;16.50;3.65;;;7.70;99.90;;;;;;4999493;28;20053;-88
2021/12/06 11:06:25;;;;;;;13.85;2.83;;;7.60;99.90;;;;;;4996507;28;20418;-80
2021/12/06 11:08:55;;;;;;;10.65;2.97;;;7.50;99.90;;;;;;4983825;28;20050;-79
2021/12/06 11:11:31;;;;;;;12.77;2.42;;;7.50;99.90;;;;;;4988051;28;20054;-80
2021/12/06 11:14:02;;;;;;;17.52;3.33;;;7.50;99.90;;;;;;4981707;28;20109;-80
2021/12/06 11:16:34;;;;;;;15.75;2.80;;;7.50;99.90;;;;;;5000552;28;20109;-81
2021/12/06 11:19:05;;;;;;;14.68;3.88;;;7.50;99.90;;;;;;5004852;28;20047;-80
2021/12/06 11:21:44;;;;;;;11.77;2.35;;;7.50;99.90;;;;;;4974205;28;20051;-81
2021/12/06 11:24:17;;;;;;;9.60;2.47;;;7.50;99.90;;;;;;5006357;28;20050;-80
2021/12/06 11:26:56;;;;;;;18.08;2.83;;;7.50;99.90;;;;;;4989045;28;20465;-80
2021/12/06 11:29:35;;;;;;;8.15;2.20;;;7.40;99.90;;;;;;4983485;28;20058;-79
2021/12/06 11:32:08;;;;;;;9.40;2.00;;;7.40;99.90;;;;;;4975848;28;20050;-80
2021/12/06 11:34:41;;;;;;;8.15;1.90;;;7.40;99.90;;;;;;4993173;28;20096;-81
2021/12/06 11:37:27;;;;;;;13.85;2.58;;;7.40;99.90;;;;;;4993502;28;20097;-80
2021/12/06 11:40:12;;;;;;;17.95;2.70;;;7.30;99.90;;;;;;4991864;28;20457;-81
2021/12/06 11:43:00;;;;;;;13.40;2.70;;;7.40;99.90;;;;;;4991478;28;20108;-80
2021/12/06 11:45:36;;;;;;;13.88;3.08;;;7.20;99.90;;;;;;5007566;28;20050;-78
2021/12/06 11:48:28;;;;;;;6.97;3.00;;;7.30;99.90;;;;;;4992558;28;20055;-79
2021/12/06 11:50:57;;;;;;;23.70;5.38;;;7.30;99.90;;;;;;4991694;28;20089;-79
2021/12/06 11:53:28;;;;;;;13.65;3.05;;;7.30;99.90;;;;;;4986536;28;20534;-83
2021/12/06 11:56:00;;;;;;;10.93;2.45;;;7.30;99.90;;;;;;4982112;28;20589;-80
2021/12/06 11:58:36;;;;;;;12.07;2.42;;;7.30;99.90;;;;;;4989215;28;20042;-78
2021/12/06 12:01:29;;;;;;;13.40;2.50;;;7.20;99.90;;;;;;4981872;28;20104;-80
2021/12/06 12:04:03;;;;;;;12.32;2.95;;;7.20;99.90;;;;;;4989218;28;20051;-79
2021/12/06 12:06:40;;;;;;;11.35;2.75;;;7.20;99.90;;;;;;4979926;28;20050;-80
2021/12/06 12:09:20;;;;;;;10.63;2.33;;;7.20;99.90;;;;;;4989850;28;20043;-77
2021/12/06 12:12:25;;;;;;;10.98;2.30;;;7.20;99.90;;;;;;5000741;28;20051;-79
2021/12/06 12:14:58;;;;;;;10.05;2.83;;;7.20;99.90;;;;;;4976031;28;20065;-78
2021/12/06 12:17:30;;;;;;;12.48;2.67;;;7.20;99.90;;;;;;4980195;28;20090;-78
2021/12/06 12:20:05;;;;;;;10.13;2.00;;;7.20;99.90;;;;;;4993055;28;20102;-78
2021/12/06 12:22:33;;;;;;;14.15;2.33;;;7.20;99.90;;;;;;4987810;28;20077;-79
2021/12/06 12:25:07;;;;;;;12.57;2.17;;;7.30;99.90;;;;;;4988421;28;20047;-79
2021/12/06 12:30:36;;;;;;;9.32;2.80;;;7.30;99.90;;;;;;4943518;28;20112;-79
2021/12/06 12:33:06;;;;;;;11.07;2.67;;;7.30;99.90;;;;;;4987667;28;20046;-82
2021/12/06 12:35:34;;;;;;;52.53;18.45;;;7.40;99.90;;;;;;5002364;28;20061;-80
2021/12/06 12:38:03;;;;;;;98.07;44.00;;;7.40;99.90;;;;;;4996505;28;20054;-82
2021/12/06 12:40:43;;;;;;;30.73;12.73;;;7.40;99.90;;;;;;5000124;28;20113;-79
2021/12/06 12:43:14;;;;;;;15.18;3.10;;;7.50;99.90;;;;;;4978774;28;20097;-80
2021/12/06 12:45:51;;;;;;;17.02;3.03;;;7.50;99.90;;;;;;4992006;28;20404;-80
2021/12/06 12:48:23;;;;;;;12.95;2.60;;;7.50;99.90;;;;;;4997078;28;20054;-79
2021/12/06 12:51:04;;;;;;;8.23;1.98;;;7.60;99.90;;;;;;4983231;28;20522;-79
2021/12/06 12:53:55;;;;;;;16.25;2.28;;;7.60;99.90;;;;;;4994534;28;20050;-79
2021/12/06 12:56:44;;;;;;;10.85;2.08;;;7.70;99.90;;;;;;4998270;28;20438;-80
2021/12/06 12:59:32;;;;;;;10.88;2.50;;;7.80;99.90;;;;;;4992859;28;20515;-86
2021/12/06 13:02:21;;;;;;;14.80;2.60;;;7.90;99.90;;;;;;4987278;28;20104;-81
2021/12/06 13:04:58;;;;;;;11.48;2.97;;;8.00;99.90;;;;;;4986381;28;20102;-81
2021/12/06 13:07:27;;;;;;;11.05;2.67;;;8.00;99.90;;;;;;4977045;28;20047;-79
2021/12/06 13:09:57;;;;;;;13.65;3.55;;;8.10;99.90;;;;;;4983176;28;20619;-81
2021/12/06 13:12:27;;;;;;;14.27;3.38;;;8.20;99.90;;;;;;4975998;28;20047;-81
2021/12/06 13:15:09;;;;;;;13.63;3.67;;;8.30;99.90;;;;;;4975598;28;20047;-77
2021/12/06 13:17:47;;;;;;;12.68;4.53;;;8.40;99.90;;;;;;4988736;28;20059;-80
2021/12/06 13:20:21;;;;;;;10.98;3.42;;;8.40;99.90;;;;;;4976077;28;20646;-77
2021/12/06 13:22:54;;;;;;;18.27;3.05;;;8.50;99.90;;;;;;4986315;28;20135;-80
2021/12/06 13:25:24;;;;;;;10.52;2.85;;;8.60;99.90;;;;;;4995808;28;20457;-78